Time;durP1;ratioP1;P1;durP2;ratioP2;P2;SDS_P1;SDS_P2;PMS_P1;PMS_P2;Temp;Humidity;BMP_temperature;BMP_pressure;BME280_temperature;BME280_humidity;BME280_pressure;Samples;Min_cycle;Max_cycle;Signal;HPM_P1;HPM_P2
2023/01/19 00:02:21;;;;;;;1.63;1.50;;;1.60;98.20;;;;;;5032475;28;20483;-73
2023/01/19 00:04:47;;;;;;;1.63;1.50;;;1.60;98.20;;;;;;5054810;28;20485;-74
2023/01/19 00:07:15;;;;;;;1.80;1.70;;;1.60;98.20;;;;;;5038861;28;20491;-74
2023/01/19 00:09:42;;;;;;;1.70;1.60;;;1.60;98.20;;;;;;5051173;28;20458;-71
2023/01/19 00:12:10;;;;;;;2.03;1.90;;;1.60;98.20;;;;;;5035630;28;20479;-74
2023/01/19 00:14:37;;;;;;;1.60;1.50;;;1.70;98.20;;;;;;5059057;28;20477;-73
2023/01/19 00:17:04;;;;;;;1.73;1.63;;;1.70;98.20;;;;;;5035412;28;20498;-73
2023/01/19 00:19:30;;;;;;;1.73;1.63;;;1.70;98.20;;;;;;5057201;28;20817;-72
2023/01/19 00:21:57;;;;;;;1.80;1.70;;;1.70;98.20;;;;;;5036613;28;20487;-73
2023/01/19 00:24:24;;;;;;;1.70;1.50;;;1.70;98.20;;;;;;5046691;28;20474;-74
2023/01/19 00:26:50;;;;;;;1.70;1.60;;;1.70;98.20;;;;;;5038578;28;20986;-73
2023/01/19 00:29:19;;;;;;;1.73;1.60;;;1.70;98.20;;;;;;5052574;28;20457;-73
2023/01/19 00:31:45;;;;;;;1.63;1.50;;;1.70;98.20;;;;;;5041049;28;20490;-75
2023/01/19 00:34:12;;;;;;;1.70;1.50;;;1.70;98.20;;;;;;5049315;28;20905;-74
2023/01/19 00:36:39;;;;;;;1.60;1.50;;;1.80;98.20;;;;;;5045550;28;20762;-73
2023/01/19 00:39:06;;;;;;;1.70;1.60;;;1.80;98.20;;;;;;5065053;28;20461;-74
2023/01/19 00:44:18;;;;;;;1.63;1.50;;;1.80;98.20;;;;;;5039506;28;20516;-74
2023/01/19 00:46:45;;;;;;;1.83;1.73;;;1.80;98.20;;;;;;5029696;28;20490;-74
2023/01/19 00:49:12;;;;;;;1.70;1.50;;;1.80;98.20;;;;;;5041835;28;20950;-74
2023/01/19 00:51:38;;;;;;;1.80;1.70;;;1.80;98.20;;;;;;5042918;28;20479;-73
2023/01/19 00:54:09;;;;;;;1.70;1.50;;;1.80;98.20;;;;;;5048236;28;20473;-72
2023/01/19 00:56:36;;;;;;;1.73;1.63;;;1.80;98.20;;;;;;5042237;28;20495;-73
2023/01/19 00:59:03;;;;;;;1.67;1.50;;;1.70;98.20;;;;;;5040480;28;20461;-73
2023/01/19 01:01:31;;;;;;;1.67;1.50;;;1.70;98.20;;;;;;5049051;28;20487;-73
2023/01/19 01:03:58;;;;;;;1.67;1.40;;;1.70;98.20;;;;;;5049681;28;20481;-74
2023/01/19 01:06:25;;;;;;;1.67;1.50;;;1.70;98.20;;;;;;5041384;28;20488;-73
2023/01/19 01:08:52;;;;;;;1.80;1.70;;;1.70;98.20;;;;;;5040375;28;20469;-71
2023/01/19 01:11:19;;;;;;;1.63;1.50;;;1.60;98.20;;;;;;5050985;28;20577;-72
2023/01/19 01:13:45;;;;;;;1.67;1.50;;;1.70;98.20;;;;;;5039647;28;20869;-72
2023/01/19 01:16:15;;;;;;;1.63;1.47;;;1.70;98.20;;;;;;5053369;28;21007;-73
2023/01/19 01:18:43;;;;;;;1.67;1.40;;;1.70;98.20;;;;;;5037014;28;20993;-71
2023/01/19 01:21:11;;;;;;;1.77;1.67;;;1.70;98.20;;;;;;5049917;28;20490;-71
2023/01/19 01:23:38;;;;;;;1.67;1.50;;;1.70;98.20;;;;;;5040269;28;20490;-73
2023/01/19 01:26:05;;;;;;;1.90;1.80;;;1.70;98.20;;;;;;5057944;28;20458;-73
2023/01/19 01:28:32;;;;;;;1.63;1.50;;;1.70;98.20;;;;;;5069239;28;20484;-73
2023/01/19 01:30:59;;;;;;;1.63;1.50;;;1.60;98.20;;;;;;5058484;28;20453;-73
2023/01/19 01:33:26;;;;;;;1.67;1.53;;;1.60;98.20;;;;;;5057798;28;20921;-73
2023/01/19 01:35:54;;;;;;;1.70;1.50;;;1.70;98.20;;;;;;5056423;28;20492;-72
2023/01/19 01:38:20;;;;;;;1.67;1.50;;;1.70;98.20;;;;;;5038462;28;20458;-73
2023/01/19 01:40:47;;;;;;;1.70;1.60;;;1.70;98.20;;;;;;5055126;28;20477;-71
2023/01/19 01:43:16;;;;;;;1.70;1.60;;;1.70;98.20;;;;;;5058191;28;21038;-72
2023/01/19 01:45:44;;;;;;;1.60;1.50;;;1.70;98.20;;;;;;5067990;28;20548;-72
2023/01/19 01:48:14;;;;;;;1.70;1.50;;;1.70;98.20;;;;;;5027169;28;20488;-72
2023/01/19 01:53:32;;;;;;;1.90;1.80;;;1.70;98.20;;;;;;5041325;28;20818;-74
2023/01/19 01:56:00;;;;;;;1.70;1.50;;;1.70;98.20;;;;;;5056327;28;20464;-73
2023/01/19 01:58:27;;;;;;;1.63;1.47;;;1.70;98.20;;;;;;5039280;28;20453;-73
2023/01/19 02:03:39;;;;;;;1.70;1.60;;;1.70;98.20;;;;;;5046820;28;20880;-72
2023/01/19 02:06:07;;;;;;;1.63;1.50;;;1.70;98.20;;;;;;5038288;28;20460;-73
2023/01/19 02:14:12;;;;;;;1.70;1.50;;;1.70;98.20;;;;;;5045323;28;20488;-73
2023/01/19 02:16:38;;;;;;;1.63;1.50;;;1.70;98.20;;;;;;5037500;28;20912;-72
2023/01/19 02:19:07;;;;;;;1.70;1.60;;;1.70;98.20;;;;;;5050769;28;20454;-72
2023/01/19 02:21:41;;;;;;;1.63;1.50;;;1.70;98.20;;;;;;5045163;28;20480;-72
2023/01/19 02:24:10;;;;;;;1.67;1.57;;;1.70;98.20;;;;;;5042764;28;20473;-73
2023/01/19 02:26:40;;;;;;;1.70;1.50;;;1.70;98.20;;;;;;5041093;28;20487;-73
2023/01/19 02:29:09;;;;;;;1.63;1.50;;;1.70;98.20;;;;;;5042588;28;20476;-73
2023/01/19 02:31:38;;;;;;;1.70;1.50;;;1.70;98.20;;;;;;5050088;28;20486;-73
2023/01/19 02:34:06;;;;;;;1.70;1.57;;;1.70;98.20;;;;;;5060558;28;21005;-72
2023/01/19 02:36:37;;;;;;;3.87;3.67;;;1.70;98.20;;;;;;5056151;28;20497;-73
2023/01/19 02:39:05;;;;;;;1.63;1.50;;;1.70;98.20;;;;;;5058184;28;20465;-73
2023/01/19 02:41:39;;;;;;;1.70;1.50;;;1.70;98.20;;;;;;5047023;28;20578;-73
2023/01/19 02:44:08;;;;;;;1.70;1.57;;;1.70;98.20;;;;;;5037161;28;20486;-73
2023/01/19 02:46:35;;;;;;;1.63;1.40;;;1.70;98.20;;;;;;5043011;28;20902;-73
2023/01/19 02:49:02;;;;;;;2.00;1.80;;;1.60;98.20;;;;;;5046579;28;20464;-72
2023/01/19 02:51:29;;;;;;;1.67;1.50;;;1.60;98.20;;;;;;5032747;28;20483;-72
2023/01/19 02:54:30;;;;;;;1.67;1.50;;;1.60;98.20;;;;;;5036241;28;20486;-73
2023/01/19 02:57:12;;;;;;;1.67;1.50;;;1.60;98.20;;;;;;5035618;28;20904;-71
2023/01/19 02:59:51;;;;;;;1.70;1.50;;;1.60;98.20;;;;;;5048345;28;20458;-74
2023/01/19 03:02:32;;;;;;;1.67;1.53;;;1.60;98.20;;;;;;5049103;28;20477;-73
2023/01/19 03:05:07;;;;;;;1.67;1.50;;;1.60;98.20;;;;;;5062991;28;21174;-73
2023/01/19 03:07:49;;;;;;;1.63;1.50;;;1.60;98.20;;;;;;5048007;28;20520;-72
2023/01/19 03:10:22;;;;;;;1.63;1.50;;;1.60;98.20;;;;;;5065156;28;20457;-72
2023/01/19 03:12:57;;;;;;;1.70;1.53;;;1.60;98.20;;;;;;5053766;28;21026;-72
2023/01/19 03:15:30;;;;;;;1.63;1.50;;;1.60;98.20;;;;;;5058889;28;20456;-73
2023/01/19 03:18:00;;;;;;;3.40;3.20;;;1.60;98.20;;;;;;5044980;28;20898;-73
2023/01/19 03:20:27;;;;;;;1.63;1.50;;;1.60;98.20;;;;;;5063562;28;20515;-73
2023/01/19 03:23:00;;;;;;;1.70;1.57;;;1.50;98.20;;;;;;5048167;28;20485;-72
2023/01/19 03:25:30;;;;;;;1.70;1.50;;;1.50;98.20;;;;;;5066058;28;20884;-72
2023/01/19 03:27:58;;;;;;;1.70;1.60;;;1.50;98.20;;;;;;5052285;28;20488;-72
2023/01/19 03:30:30;;;;;;;1.70;1.60;;;1.50;98.20;;;;;;5067027;28;20896;-73
2023/01/19 03:33:01;;;;;;;1.70;1.50;;;1.50;98.20;;;;;;5051643;28;20483;-73
2023/01/19 03:35:31;;;;;;;1.67;1.50;;;1.50;98.20;;;;;;5066960;28;20540;-73
2023/01/19 03:38:00;;;;;;;1.80;1.70;;;1.50;98.20;;;;;;5034882;28;20495;-73
2023/01/19 03:40:29;;;;;;;1.70;1.60;;;1.50;98.20;;;;;;5063296;28;20454;-73
2023/01/19 03:42:56;;;;;;;1.67;1.53;;;1.50;98.20;;;;;;5052692;28;20485;-73
2023/01/19 03:45:25;;;;;;;1.77;1.67;;;1.50;98.20;;;;;;5067074;28;20544;-73
2023/01/19 03:47:52;;;;;;;1.60;1.40;;;1.50;98.20;;;;;;5051870;28;21056;-72
2023/01/19 03:50:26;;;;;;;1.63;1.43;;;1.60;98.20;;;;;;5065374;28;21001;-72
2023/01/19 03:53:06;;;;;;;1.67;1.50;;;1.60;98.20;;;;;;5048145;28;21022;-73
2023/01/19 03:55:33;;;;;;;1.63;1.50;;;1.60;98.20;;;;;;5064906;28;20975;-74
2023/01/19 03:58:00;;;;;;;1.60;1.40;;;1.70;98.20;;;;;;5048662;28;21086;-73
2023/01/19 04:00:28;;;;;;;1.67;1.50;;;1.70;98.20;;;;;;5061129;28;20585;-71
2023/01/19 04:02:55;;;;;;;1.70;1.50;;;1.70;98.20;;;;;;5050888;28;20570;-73
2023/01/19 04:05:22;;;;;;;1.70;1.50;;;1.80;98.20;;;;;;5060059;28;20462;-73
2023/01/19 04:07:49;;;;;;;1.70;1.60;;;1.80;98.20;;;;;;5051270;28;20917;-71
2023/01/19 04:10:17;;;;;;;1.70;1.50;;;1.80;98.20;;;;;;5065302;28;20461;-73
2023/01/19 04:12:44;;;;;;;1.63;1.50;;;1.90;98.20;;;;;;5053370;28;20552;-72
2023/01/19 04:15:11;;;;;;;1.70;1.60;;;1.90;98.20;;;;;;5065844;28;20460;-73
2023/01/19 04:17:39;;;;;;;1.70;1.57;;;1.90;98.20;;;;;;5052465;28;20493;-72
2023/01/19 04:20:07;;;;;;;1.73;1.63;;;2.00;98.20;;;;;;5056505;28;20461;-71
2023/01/19 04:22:35;;;;;;;1.70;1.50;;;2.00;98.20;;;;;;5053122;28;20482;-74
2023/01/19 04:25:02;;;;;;;1.63;1.50;;;2.00;98.20;;;;;;5062346;28;20500;-72
2023/01/19 04:27:29;;;;;;;1.80;1.70;;;2.10;98.20;;;;;;5051978;28;20952;-75
2023/01/19 04:29:55;;;;;;;1.63;1.50;;;2.00;98.20;;;;;;5063580;28;21135;-73
2023/01/19 04:32:22;;;;;;;3.10;2.90;;;2.00;98.20;;;;;;5052263;28;20484;-73
2023/01/19 04:34:50;;;;;;;1.70;1.50;;;2.00;98.20;;;;;;5054593;28;20481;-75
2023/01/19 04:37:17;;;;;;;1.70;1.50;;;2.00;98.20;;;;;;5040016;28;20537;-75
2023/01/19 04:39:44;;;;;;;1.70;1.60;;;2.10;98.20;;;;;;5058177;28;20462;-74
2023/01/19 04:42:11;;;;;;;1.67;1.40;;;2.10;98.20;;;;;;5035137;28;21018;-75
2023/01/19 04:44:37;;;;;;;1.70;1.43;;;2.00;98.20;;;;;;5060436;28;20477;-76
2023/01/19 04:47:04;;;;;;;1.67;1.50;;;2.00;98.20;;;;;;5043478;28;20493;-77
2023/01/19 04:49:31;;;;;;;1.70;1.60;;;2.10;98.20;;;;;;5062550;28;20552;-75
2023/01/19 04:52:00;;;;;;;1.60;1.40;;;2.10;98.20;;;;;;5041111;28;20555;-77
2023/01/19 04:54:26;;;;;;;1.63;1.40;;;2.10;98.20;;;;;;5057651;28;20485;-76
2023/01/19 04:56:53;;;;;;;1.63;1.50;;;2.10;98.20;;;;;;5041292;28;20490;-74
2023/01/19 04:59:20;;;;;;;1.67;1.50;;;2.10;98.20;;;;;;5056303;28;20457;-75
2023/01/19 05:01:47;;;;;;;1.70;1.50;;;2.10;98.20;;;;;;5044332;28;21046;-73
2023/01/19 05:04:14;;;;;;;1.67;1.53;;;2.10;98.20;;;;;;5048349;28;21087;-76
2023/01/19 05:06:40;;;;;;;1.67;1.50;;;2.20;98.20;;;;;;5052559;28;20504;-74
2023/01/19 05:09:11;;;;;;;1.63;1.50;;;2.20;98.20;;;;;;5060154;28;20461;-75
2023/01/19 05:11:38;;;;;;;1.60;1.50;;;2.20;98.20;;;;;;5041509;28;20487;-76
2023/01/19 05:14:05;;;;;;;1.70;1.60;;;2.20;98.20;;;;;;5038802;28;20482;-75
2023/01/19 05:16:33;;;;;;;1.67;1.50;;;2.20;98.20;;;;;;5047772;28;20514;-76
2023/01/19 05:19:00;;;;;;;1.70;1.57;;;2.10;98.20;;;;;;5062976;28;20469;-77
2023/01/19 05:21:27;;;;;;;1.70;1.60;;;2.10;98.20;;;;;;5055077;28;20481;-75
2023/01/19 05:23:54;;;;;;;1.70;1.60;;;2.00;98.20;;;;;;5068187;28;20501;-77
2023/01/19 05:26:22;;;;;;;1.63;1.40;;;2.00;98.20;;;;;;5045983;28;21130;-76
2023/01/19 05:28:49;;;;;;;1.77;1.67;;;1.90;98.20;;;;;;5050468;28;20469;-76
2023/01/19 05:31:16;;;;;;;1.80;1.70;;;1.90;98.20;;;;;;5042201;28;20483;-76
2023/01/19 05:33:43;;;;;;;1.70;1.60;;;1.80;98.20;;;;;;5051389;28;20507;-77
2023/01/19 05:36:10;;;;;;;1.70;1.60;;;1.80;98.20;;;;;;5053985;28;20482;-77
2023/01/19 05:38:37;;;;;;;1.70;1.50;;;1.70;98.20;;;;;;5053227;28;20468;-76
2023/01/19 05:41:04;;;;;;;1.70;1.60;;;1.70;98.20;;;;;;5058712;28;20473;-78
2023/01/19 05:43:32;;;;;;;1.70;1.57;;;1.70;98.20;;;;;;5069753;28;20488;-77
2023/01/19 05:45:59;;;;;;;1.70;1.60;;;1.70;98.20;;;;;;5059098;28;20464;-77
2023/01/19 05:48:26;;;;;;;1.63;1.40;;;1.60;98.20;;;;;;5052129;28;20471;-77
2023/01/19 05:50:57;;;;;;;1.70;1.60;;;1.60;98.20;;;;;;5053066;28;20477;-78
2023/01/19 05:53:24;;;;;;;1.67;1.47;;;1.60;98.20;;;;;;5050705;28;20497;-76
2023/01/19 05:55:51;;;;;;;1.63;1.40;;;1.50;98.20;;;;;;5055151;28;20457;-76
2023/01/19 05:58:18;;;;;;;1.70;1.60;;;1.50;98.20;;;;;;5047485;28;20469;-77
2023/01/19 06:00:46;;;;;;;1.67;1.50;;;1.50;98.20;;;;;;5070563;28;20469;-78
2023/01/19 06:03:13;;;;;;;1.70;1.60;;;1.50;98.20;;;;;;5044646;28;20491;-77
2023/01/19 06:05:39;;;;;;;1.70;1.50;;;1.40;98.20;;;;;;5067122;28;20465;-75
2023/01/19 06:08:07;;;;;;;1.70;1.60;;;1.40;98.20;;;;;;5031031;28;20478;-76
2023/01/19 06:10:34;;;;;;;1.67;1.50;;;1.40;98.20;;;;;;5065322;28;20970;-79
2023/01/19 06:13:00;;;;;;;1.70;1.60;;;1.50;98.20;;;;;;5057650;28;20872;-77
2023/01/19 06:15:27;;;;;;;1.70;1.50;;;1.50;98.20;;;;;;5069830;28;20465;-78
2023/01/19 06:17:55;;;;;;;1.70;1.50;;;1.50;98.20;;;;;;5039372;28;20532;-79
2023/01/19 06:20:22;;;;;;;1.70;1.60;;;1.50;98.20;;;;;;5068744;28;21026;-79
2023/01/19 06:22:49;;;;;;;1.70;1.60;;;1.50;98.20;;;;;;5041607;28;20481;-77
2023/01/19 06:25:16;;;;;;;1.67;1.50;;;1.50;98.20;;;;;;5074843;28;20458;-78
2023/01/19 06:27:45;;;;;;;1.80;1.70;;;1.50;98.20;;;;;;5065480;28;20481;-79
2023/01/19 06:30:12;;;;;;;1.70;1.60;;;1.50;98.20;;;;;;5058059;28;20466;-77
2023/01/19 06:32:39;;;;;;;1.70;1.50;;;1.50;98.20;;;;;;5053363;28;21111;-77
2023/01/19 06:35:08;;;;;;;1.77;1.67;;;1.50;98.20;;;;;;5065014;28;20664;-78
2023/01/19 06:37:35;;;;;;;1.70;1.53;;;1.50;98.20;;;;;;5055877;28;20556;-78
2023/01/19 06:40:03;;;;;;;1.70;1.57;;;1.50;98.20;;;;;;5060038;28;20461;-78
2023/01/19 06:42:29;;;;;;;1.67;1.50;;;1.50;98.20;;;;;;5057664;28;20482;-76
2023/01/19 06:44:56;;;;;;;1.60;1.50;;;1.50;98.20;;;;;;5064074;28;20573;-75
2023/01/19 06:47:23;;;;;;;1.60;1.50;;;1.50;98.20;;;;;;5030869;28;20865;-79
2023/01/19 06:49:50;;;;;;;1.73;1.63;;;1.50;98.20;;;;;;5063882;28;20461;-76
2023/01/19 06:52:19;;;;;;;1.70;1.60;;;1.50;98.20;;;;;;5041165;28;20477;-78
2023/01/19 06:54:46;;;;;;;1.70;1.50;;;1.50;98.20;;;;;;5070220;28;20963;-78
2023/01/19 06:57:13;;;;;;;1.73;1.63;;;1.50;98.20;;;;;;5046489;28;20538;-79
2023/01/19 06:59:40;;;;;;;1.83;1.73;;;1.50;98.20;;;;;;5065579;28;20990;-78
2023/01/19 07:02:07;;;;;;;1.67;1.50;;;1.50;98.20;;;;;;5060887;28;20512;-79
2023/01/19 07:04:34;;;;;;;1.70;1.53;;;1.50;98.20;;;;;;5070710;28;20567;-77
2023/01/19 07:07:01;;;;;;;1.63;1.50;;;1.50;98.20;;;;;;5049665;28;20500;-77
2023/01/19 07:09:29;;;;;;;1.77;1.67;;;1.60;98.20;;;;;;5066145;28;20562;-79
2023/01/19 07:11:56;;;;;;;1.63;1.50;;;1.50;98.20;;;;;;5045699;28;20490;-78
2023/01/19 07:14:24;;;;;;;1.70;1.60;;;1.60;98.20;;;;;;5061897;28;20559;-78
2023/01/19 07:16:51;;;;;;;1.70;1.60;;;1.60;98.20;;;;;;5061371;28;20481;-78
2023/01/19 07:19:18;;;;;;;1.80;1.70;;;1.60;98.20;;;;;;5070300;28;20473;-78
2023/01/19 07:21:45;;;;;;;1.70;1.60;;;1.60;98.20;;;;;;5042488;28;20483;-79
2023/01/19 07:24:11;;;;;;;3.50;3.30;;;1.60;98.20;;;;;;5059652;28;20596;-78
2023/01/19 07:26:39;;;;;;;1.67;1.50;;;1.60;98.20;;;;;;5048432;28;20485;-78
2023/01/19 07:29:07;;;;;;;1.67;1.50;;;1.60;98.20;;;;;;5061337;28;20454;-78
2023/01/19 07:31:34;;;;;;;2.10;1.90;;;1.60;98.20;;;;;;5064108;28;20528;-79
2023/01/19 07:34:00;;;;;;;1.90;1.80;;;1.60;98.20;;;;;;5072923;28;20477;-79
2023/01/19 07:36:27;;;;;;;1.70;1.50;;;1.60;98.20;;;;;;5056239;28;20485;-79
2023/01/19 07:38:54;;;;;;;1.60;1.50;;;1.60;98.20;;;;;;5056848;28;20457;-78
2023/01/19 07:41:21;;;;;;;1.70;1.50;;;1.60;98.20;;;;;;5063958;28;20484;-77
2023/01/19 07:43:51;;;;;;;1.73;1.63;;;1.60;98.20;;;;;;5076141;28;20493;-79
2023/01/19 07:46:18;;;;;;;1.90;1.80;;;1.60;98.20;;;;;;5061098;28;20739;-78
2023/01/19 07:48:46;;;;;;;1.70;1.60;;;1.70;98.20;;;;;;5071626;28;20904;-78
2023/01/19 07:51:16;;;;;;;1.63;1.50;;;1.70;98.20;;;;;;5058154;28;20484;-78
2023/01/19 07:53:43;;;;;;;1.70;1.60;;;1.70;98.20;;;;;;5055691;28;21025;-79
2023/01/19 07:56:11;;;;;;;1.70;1.60;;;1.70;98.20;;;;;;5053956;28;20986;-79
2023/01/19 07:58:38;;;;;;;1.70;1.50;;;1.70;98.20;;;;;;5057119;28;20467;-80
2023/01/19 08:01:08;;;;;;;1.67;1.50;;;1.70;98.20;;;;;;5055136;28;20495;-79
2023/01/19 08:03:35;;;;;;;1.70;1.50;;;1.70;98.20;;;;;;5046919;28;20485;-80
2023/01/19 08:06:03;;;;;;;1.70;1.50;;;1.70;98.20;;;;;;5057917;28;20461;-79
2023/01/19 08:08:31;;;;;;;1.63;1.50;;;1.80;98.20;;;;;;5053406;28;20506;-79
2023/01/19 08:10:58;;;;;;;1.70;1.50;;;1.80;98.20;;;;;;5057575;28;20994;-78
2023/01/19 08:13:25;;;;;;;1.70;1.50;;;1.80;98.20;;;;;;5063044;28;20473;-79
2023/01/19 08:15:53;;;;;;;1.70;1.60;;;1.80;98.20;;;;;;5060040;28;20454;-79
2023/01/19 08:18:22;;;;;;;1.73;1.63;;;1.80;98.20;;;;;;5049843;28;22359;-79
2023/01/19 08:20:57;;;;;;;1.63;1.50;;;1.80;98.20;;;;;;5059772;28;20818;-78
2023/01/19 08:23:23;;;;;;;1.67;1.50;;;1.80;98.20;;;;;;5068325;28;20484;-78
2023/01/19 08:25:50;;;;;;;1.67;1.40;;;1.90;98.20;;;;;;5057321;28;20465;-79
2023/01/19 08:28:17;;;;;;;1.67;1.50;;;1.90;98.20;;;;;;5051127;28;20468;-79
2023/01/19 08:30:44;;;;;;;1.67;1.50;;;1.90;98.20;;;;;;5071920;28;20465;-78
2023/01/19 08:33:11;;;;;;;1.80;1.70;;;1.90;98.20;;;;;;5041534;28;20700;-79
2023/01/19 08:35:42;;;;;;;1.67;1.50;;;1.90;98.20;;;;;;5070197;28;20457;-79
2023/01/19 08:38:10;;;;;;;1.67;1.53;;;1.90;98.20;;;;;;5041588;28;20473;-79
2023/01/19 08:40:39;;;;;;;1.80;1.70;;;2.00;98.20;;;;;;5067394;28;20492;-79
2023/01/19 08:43:13;;;;;;;1.70;1.60;;;1.90;98.20;;;;;;5035167;28;20606;-79
2023/01/19 08:45:55;;;;;;;1.70;1.50;;;2.00;98.20;;;;;;5069024;28;20477;-79
2023/01/19 08:48:22;;;;;;;1.93;1.80;;;2.00;98.20;;;;;;5040835;28;20504;-79
2023/01/19 08:51:01;;;;;;;1.70;1.50;;;2.00;98.20;;;;;;5068061;28;20461;-79
2023/01/19 08:53:31;;;;;;;1.70;1.60;;;2.00;98.20;;;;;;5050743;28;20569;-79
2023/01/19 08:56:36;;;;;;;1.67;1.50;;;2.00;98.20;;;;;;5055859;28;20446;-79
2023/01/19 08:59:02;;;;;;;1.73;1.63;;;2.00;98.20;;;;;;5038620;28;20829;-78
2023/01/19 09:01:30;;;;;;;1.70;1.50;;;2.00;98.20;;;;;;5048441;28;20487;-79
2023/01/19 09:03:57;;;;;;;1.67;1.50;;;2.00;98.20;;;;;;5050603;28;20579;-79
2023/01/19 09:06:26;;;;;;;1.70;1.50;;;2.10;98.20;;;;;;5044599;28;20587;-80
2023/01/19 09:08:53;;;;;;;1.87;1.77;;;2.10;98.20;;;;;;5053379;28;20515;-78
2023/01/19 09:11:20;;;;;;;1.80;1.70;;;2.10;98.20;;;;;;5050580;28;20558;-80
2023/01/19 09:13:47;;;;;;;1.67;1.40;;;2.10;98.20;;;;;;5051029;28;20481;-78
2023/01/19 09:16:14;;;;;;;1.70;1.50;;;2.10;98.20;;;;;;5050245;28;21030;-78
2023/01/19 09:18:41;;;;;;;1.70;1.60;;;2.10;98.20;;;;;;5065920;28;20847;-78
2023/01/19 09:21:09;;;;;;;1.70;1.57;;;2.10;98.20;;;;;;5056090;28;20488;-79
2023/01/19 09:24:12;;;;;;;1.87;1.70;;;2.20;98.20;;;;;;5048308;28;20497;-79
2023/01/19 09:29:56;;;;;;;1.70;1.50;;;2.30;98.20;;;;;;4999636;28;20465;-80
2023/01/19 09:32:41;;;;;;;1.70;1.60;;;2.30;98.20;;;;;;5063582;28;20481;-80
2023/01/19 09:35:08;;;;;;;1.87;1.77;;;2.40;98.20;;;;;;5072348;28;20465;-79
2023/01/19 09:37:35;;;;;;;1.63;1.50;;;2.40;98.20;;;;;;5061275;28;20477;-80
2023/01/19 09:40:04;;;;;;;1.67;1.50;;;2.50;98.20;;;;;;5068155;28;20457;-79
2023/01/19 09:42:37;;;;;;;1.70;1.40;;;2.50;98.20;;;;;;5031637;28;20478;-78
2023/01/19 09:45:56;;;;;;;1.70;1.57;;;2.60;98.20;;;;;;5069614;28;20516;-79
2023/01/19 09:48:41;;;;;;;1.67;1.50;;;2.60;98.20;;;;;;5032685;28;20501;-79
2023/01/19 09:51:19;;;;;;;1.70;1.50;;;2.70;98.20;;;;;;5060450;28;20469;-80
2023/01/19 09:53:56;;;;;;;1.63;1.40;;;2.70;98.20;;;;;;5070289;28;20559;-79
2023/01/19 09:56:27;;;;;;;1.67;1.50;;;2.60;98.20;;;;;;5052978;28;20556;-78
2023/01/19 09:58:53;;;;;;;1.70;1.40;;;2.70;98.20;;;;;;5052496;28;20484;-79
2023/01/19 10:01:40;;;;;;;1.63;1.40;;;2.70;98.20;;;;;;5053730;28;20479;-79
2023/01/19 10:04:30;;;;;;;1.67;1.50;;;2.70;98.20;;;;;;5053922;28;20545;-80
2023/01/19 10:07:09;;;;;;;1.70;1.60;;;2.70;98.20;;;;;;5031850;28;20934;-78
2023/01/19 10:09:48;;;;;;;1.70;1.50;;;2.70;98.20;;;;;;5058855;28;20812;-79
2023/01/19 10:12:28;;;;;;;1.87;1.77;;;2.70;98.20;;;;;;5050498;28;20465;-80
2023/01/19 10:15:03;;;;;;;1.70;1.60;;;2.70;98.20;;;;;;5066647;28;20484;-81
2023/01/19 10:17:41;;;;;;;1.63;1.40;;;2.80;98.20;;;;;;5052843;28;20500;-80
2023/01/19 10:20:16;;;;;;;1.70;1.50;;;2.80;98.20;;;;;;5066207;28;20461;-79
2023/01/19 10:22:47;;;;;;;1.70;1.50;;;2.80;98.20;;;;;;5052135;28;20472;-80
2023/01/19 10:25:26;;;;;;;1.67;1.40;;;2.80;98.20;;;;;;5066492;28;20973;-81
2023/01/19 10:27:54;;;;;;;1.70;1.40;;;2.80;98.20;;;;;;5051549;28;20481;-80
2023/01/19 10:30:25;;;;;;;1.60;1.40;;;2.90;98.20;;;;;;5065611;28;20648;-80
2023/01/19 10:32:52;;;;;;;1.67;1.50;;;2.90;98.20;;;;;;5030247;28;20478;-79
2023/01/19 10:35:23;;;;;;;1.70;1.57;;;2.90;98.20;;;;;;5063548;28;20467;-80
2023/01/19 10:37:51;;;;;;;1.63;1.40;;;3.00;98.20;;;;;;5051238;28;20603;-77
2023/01/19 10:40:28;;;;;;;2.53;2.33;;;3.00;98.20;;;;;;5063178;28;20469;-79
2023/01/19 10:42:57;;;;;;;1.70;1.60;;;3.00;98.20;;;;;;5025350;28;20512;-79
2023/01/19 10:45:28;;;;;;;1.67;1.50;;;3.00;98.20;;;;;;5061729;28;21250;-78
2023/01/19 10:47:57;;;;;;;1.70;1.50;;;3.00;98.20;;;;;;5048956;28;20501;-80
2023/01/19 10:50:27;;;;;;;1.70;1.50;;;3.10;98.20;;;;;;5064479;28;20454;-81
2023/01/19 10:52:56;;;;;;;1.60;1.40;;;3.10;98.20;;;;;;5053765;28;20492;-82
2023/01/19 10:55:30;;;;;;;1.70;1.50;;;3.20;98.20;;;;;;5063948;28;20493;-80
2023/01/19 10:57:59;;;;;;;1.70;1.50;;;3.20;98.20;;;;;;5048570;28;20572;-82
2023/01/19 11:00:36;;;;;;;1.70;1.60;;;3.30;98.20;;;;;;5060529;28;21208;-80
2023/01/19 11:03:03;;;;;;;1.70;1.40;;;3.30;98.20;;;;;;5053068;28;20483;-80
2023/01/19 11:05:31;;;;;;;1.73;1.63;;;3.40;98.20;;;;;;5065632;28;20492;-79
2023/01/19 11:07:59;;;;;;;1.70;1.50;;;3.40;98.20;;;;;;5048778;28;20481;-81
2023/01/19 11:10:27;;;;;;;1.63;1.40;;;3.50;98.20;;;;;;5058247;28;20470;-78
2023/01/19 11:13:06;;;;;;;1.67;1.40;;;3.50;98.20;;;;;;5053214;28;21034;-81
2023/01/19 11:15:35;;;;;;;1.67;1.40;;;3.60;98.20;;;;;;5060383;28;20465;-79
2023/01/19 11:18:04;;;;;;;1.70;1.53;;;3.60;98.20;;;;;;5020574;28;20482;-78
2023/01/19 11:20:42;;;;;;;1.60;1.30;;;3.70;98.20;;;;;;5060098;28;20517;-79
2023/01/19 11:23:22;;;;;;;1.67;1.40;;;3.80;98.20;;;;;;5029055;28;20592;-78
2023/01/19 11:25:53;;;;;;;1.70;1.50;;;3.90;98.20;;;;;;5052013;28;20536;-78
2023/01/19 11:28:27;;;;;;;1.63;1.30;;;4.00;98.20;;;;;;5054203;28;20981;-79
2023/01/19 11:30:55;;;;;;;1.60;1.40;;;4.00;98.20;;;;;;5052155;28;20462;-77
2023/01/19 11:33:25;;;;;;;1.67;1.30;;;4.10;98.20;;;;;;5047531;28;20504;-78
2023/01/19 11:36:03;;;;;;;1.70;1.43;;;4.10;98.20;;;;;;5050864;28;20473;-75
2023/01/19 11:38:29;;;;;;;1.70;1.40;;;4.10;98.20;;;;;;5039799;28;20470;-78
2023/01/19 11:40:58;;;;;;;1.70;1.40;;;4.00;98.20;;;;;;5050195;28;20925;-76
2023/01/19 11:43:29;;;;;;;1.90;1.70;;;4.10;98.20;;;;;;5041406;28;20482;-78
2023/01/19 11:45:58;;;;;;;1.67;1.47;;;4.10;98.20;;;;;;5053021;28;20497;-78
2023/01/19 11:48:31;;;;;;;1.60;1.40;;;4.10;98.20;;;;;;5053764;28;20474;-77
2023/01/19 11:51:02;;;;;;;1.70;1.50;;;4.00;98.20;;;;;;5050095;28;20468;-77
2023/01/19 11:53:32;;;;;;;1.80;1.70;;;4.10;98.20;;;;;;5045672;28;20484;-77
2023/01/19 11:56:03;;;;;;;1.67;1.40;;;4.10;98.20;;;;;;5047761;28;20461;-77
2023/01/19 11:58:33;;;;;;;1.63;1.30;;;4.10;98.20;;;;;;5050776;28;20470;-76
2023/01/19 12:01:03;;;;;;;1.60;1.40;;;4.10;98.20;;;;;;5044773;28;20464;-76
2023/01/19 12:03:34;;;;;;;1.67;1.40;;;4.10;98.20;;;;;;5039201;28;21301;-77
2023/01/19 12:06:05;;;;;;;1.70;1.50;;;4.10;98.20;;;;;;5044871;28;20458;-77
2023/01/19 12:08:37;;;;;;;1.70;1.40;;;4.10;98.20;;;;;;5052405;28;20848;-76
2023/01/19 12:11:05;;;;;;;1.70;1.53;;;4.10;98.20;;;;;;5042061;28;20776;-76
2023/01/19 12:13:36;;;;;;;2.83;2.63;;;4.10;98.20;;;;;;5041187;28;20478;-77
2023/01/19 12:16:08;;;;;;;1.70;1.40;;;4.10;98.20;;;;;;5042290;28;21040;-77
2023/01/19 12:18:39;;;;;;;1.60;1.30;;;4.10;98.20;;;;;;5040201;28;20469;-77
2023/01/19 12:21:06;;;;;;;1.63;1.30;;;4.10;98.20;;;;;;5044977;28;20487;-74
2023/01/19 12:23:44;;;;;;;1.70;1.40;;;4.20;98.20;;;;;;5045783;28;20972;-75
2023/01/19 12:26:27;;;;;;;1.67;1.40;;;4.20;98.20;;;;;;5047397;28;20484;-74
2023/01/19 12:29:00;;;;;;;1.63;1.40;;;4.20;98.20;;;;;;5049996;28;20465;-76
2023/01/19 12:31:27;;;;;;;1.70;1.40;;;4.30;98.20;;;;;;5042534;28;20477;-76
2023/01/19 12:33:54;;;;;;;1.67;1.40;;;4.40;98.20;;;;;;5056956;28;20492;-75
2023/01/19 12:36:38;;;;;;;1.70;1.43;;;4.40;98.20;;;;;;5036869;28;20478;-73
2023/01/19 12:39:11;;;;;;;1.70;1.50;;;4.50;98.20;;;;;;5045762;28;20673;-75
2023/01/19 12:41:39;;;;;;;1.70;1.40;;;4.50;98.20;;;;;;5038363;28;20482;-76
2023/01/19 12:44:29;;;;;;;1.70;1.37;;;4.50;98.20;;;;;;5044125;28;20498;-76
2023/01/19 12:47:02;;;;;;;1.60;1.30;;;4.50;98.20;;;;;;5031000;28;20540;-72
2023/01/19 12:49:32;;;;;;;1.70;1.40;;;4.40;98.20;;;;;;5048319;28;20548;-75
2023/01/19 12:52:19;;;;;;;1.70;1.40;;;4.40;98.20;;;;;;5031708;28;20733;-76
2023/01/19 12:54:57;;;;;;;1.70;1.40;;;4.40;98.20;;;;;;5048037;28;20485;-76
2023/01/19 12:57:30;;;;;;;1.63;1.30;;;4.40;98.20;;;;;;5043278;28;20511;-75
2023/01/19 13:00:00;;;;;;;1.70;1.50;;;4.40;98.20;;;;;;5050693;28;20473;-76
2023/01/19 13:02:52;;;;;;;1.67;1.30;;;4.50;98.20;;;;;;5047406;28;20496;-76
2023/01/19 13:05:23;;;;;;;2.20;1.80;;;4.50;98.20;;;;;;5059143;28;20512;-74
2023/01/19 13:08:16;;;;;;;1.70;1.30;;;4.50;98.20;;;;;;5019042;28;20495;-75
2023/01/19 13:11:19;;;;;;;1.67;1.30;;;4.60;98.20;;;;;;5058611;28;20863;-75
2023/01/19 13:14:30;;;;;;;1.70;1.50;;;4.50;98.20;;;;;;5026664;28;20530;-75
2023/01/19 13:17:32;;;;;;;1.67;1.30;;;4.50;98.20;;;;;;5030689;28;20505;-75
2023/01/19 13:20:31;;;;;;;1.67;1.40;;;4.50;98.20;;;;;;5053539;28;20493;-76
2023/01/19 13:23:17;;;;;;;1.63;1.30;;;4.50;98.20;;;;;;5045134;28;20569;-76
2023/01/19 13:25:49;;;;;;;1.70;1.40;;;4.50;98.20;;;;;;5053498;28;20500;-75
2023/01/19 13:28:18;;;;;;;1.67;1.40;;;4.50;98.20;;;;;;5030192;28;20469;-73
2023/01/19 13:30:54;;;;;;;2.47;2.27;;;4.50;98.20;;;;;;5052218;28;20759;-76
2023/01/19 13:33:24;;;;;;;1.67;1.40;;;4.40;98.20;;;;;;5029686;28;20542;-76